sensor_id;sensor_type;location;lat;lon;timestamp;temperature;humidity
13796;SHT30;40911;51.552;9.874;2024-03-02T00:02:08;7.14;91.64
13796;SHT30;40911;51.552;9.874;2024-03-02T00:04:30;7.11;91.74
13796;SHT30;40911;51.552;9.874;2024-03-02T00:06:51;7.07;91.96
13796;SHT30;40911;51.552;9.874;2024-03-02T00:09:15;7.10;91.90
13796;SHT30;40911;51.552;9.874;2024-03-02T00:11:36;7.03;91.72
13796;SHT30;40911;51.552;9.874;2024-03-02T00:13:58;6.97;92.12
13796;SHT30;40911;51.552;9.874;2024-03-02T00:16:20;6.97;92.23
13796;SHT30;40911;51.552;9.874;2024-03-02T00:18:43;6.96;92.29
13796;SHT30;40911;51.552;9.874;2024-03-02T00:21:06;6.99;92.02
13796;SHT30;40911;51.552;9.874;2024-03-02T00:23:30;6.95;92.14
13796;SHT30;40911;51.552;9.874;2024-03-02T00:25:53;6.92;92.06
13796;SHT30;40911;51.552;9.874;2024-03-02T00:28:18;6.99;92.23
13796;SHT30;40911;51.552;9.874;2024-03-02T00:30:55;6.99;92.34
13796;SHT30;40911;51.552;9.874;2024-03-02T00:33:17;6.97;92.32
13796;SHT30;40911;51.552;9.874;2024-03-02T00:35:44;6.99;92.33
13796;SHT30;40911;51.552;9.874;2024-03-02T00:38:05;6.95;92.05
13796;SHT30;40911;51.552;9.874;2024-03-02T00:40:29;6.95;92.12
13796;SHT30;40911;51.552;9.874;2024-03-02T00:42:50;6.99;92.16
13796;SHT30;40911;51.552;9.874;2024-03-02T00:45:12;7.04;92.28
13796;SHT30;40911;51.552;9.874;2024-03-02T00:47:37;7.00;92.00
13796;SHT30;40911;51.552;9.874;2024-03-02T00:49:59;7.04;92.35
13796;SHT30;40911;51.552;9.874;2024-03-02T00:52:22;6.95;92.58
13796;SHT30;40911;51.552;9.874;2024-03-02T00:54:44;6.95;92.31
13796;SHT30;40911;51.552;9.874;2024-03-02T00:57:06;6.97;92.21
13796;SHT30;40911;51.552;9.874;2024-03-02T00:59:32;6.93;92.56
13796;SHT30;40911;51.552;9.874;2024-03-02T01:01:54;6.92;92.51
13796;SHT30;40911;51.552;9.874;2024-03-02T01:04:15;6.90;92.70
13796;SHT30;40911;51.552;9.874;2024-03-02T01:06:37;6.83;92.65
13796;SHT30;40911;51.552;9.874;2024-03-02T01:09:00;6.73;92.88
13796;SHT30;40911;51.552;9.874;2024-03-02T01:11:21;6.75;92.69
13796;SHT30;40911;51.552;9.874;2024-03-02T01:13:43;6.72;92.86
13796;SHT30;40911;51.552;9.874;2024-03-02T01:16:05;6.61;92.93
13796;SHT30;40911;51.552;9.874;2024-03-02T01:18:27;6.61;93.04
13796;SHT30;40911;51.552;9.874;2024-03-02T01:20:48;6.59;92.97
13796;SHT30;40911;51.552;9.874;2024-03-02T01:23:11;6.53;93.17
13796;SHT30;40911;51.552;9.874;2024-03-02T01:25:34;6.42;93.29
13796;SHT30;40911;51.552;9.874;2024-03-02T01:27:56;6.37;93.69
13796;SHT30;40911;51.552;9.874;2024-03-02T01:30:17;6.40;93.51
13796;SHT30;40911;51.552;9.874;2024-03-02T01:32:39;6.35;93.33
13796;SHT30;40911;51.552;9.874;2024-03-02T01:35:01;6.28;93.62
13796;SHT30;40911;51.552;9.874;2024-03-02T01:37:22;6.20;94.04
13796;SHT30;40911;51.552;9.874;2024-03-02T01:39:44;6.25;93.64
13796;SHT30;40911;51.552;9.874;2024-03-02T01:42:07;6.09;94.26
13796;SHT30;40911;51.552;9.874;2024-03-02T01:44:28;6.13;94.28
13796;SHT30;40911;51.552;9.874;2024-03-02T01:46:50;6.18;94.23
13796;SHT30;40911;51.552;9.874;2024-03-02T01:49:11;6.21;94.51
13796;SHT30;40911;51.552;9.874;2024-03-02T01:51:33;6.24;94.31
13796;SHT30;40911;51.552;9.874;2024-03-02T01:53:55;6.32;93.65
13796;SHT30;40911;51.552;9.874;2024-03-02T01:56:16;6.25;93.76
13796;SHT30;40911;51.552;9.874;2024-03-02T01:58:39;6.20;93.90
13796;SHT30;40911;51.552;9.874;2024-03-02T02:01:01;6.24;94.06
13796;SHT30;40911;51.552;9.874;2024-03-02T02:03:22;6.18;94.30
13796;SHT30;40911;51.552;9.874;2024-03-02T02:05:44;6.23;94.42
13796;SHT30;40911;51.552;9.874;2024-03-02T02:08:08;6.23;94.31
13796;SHT30;40911;51.552;9.874;2024-03-02T02:10:29;6.23;93.51
13796;SHT30;40911;51.552;9.874;2024-03-02T02:12:51;6.24;94.05
13796;SHT30;40911;51.552;9.874;2024-03-02T02:15:27;6.30;94.27
13796;SHT30;40911;51.552;9.874;2024-03-02T02:17:49;6.27;93.93
13796;SHT30;40911;51.552;9.874;2024-03-02T02:20:11;6.28;94.39
13796;SHT30;40911;51.552;9.874;2024-03-02T02:22:34;6.28;94.21
13796;SHT30;40911;51.552;9.874;2024-03-02T02:24:56;6.27;94.32
13796;SHT30;40911;51.552;9.874;2024-03-02T02:27:17;6.27;94.46
13796;SHT30;40911;51.552;9.874;2024-03-02T02:29:39;6.30;94.43
13796;SHT30;40911;51.552;9.874;2024-03-02T02:32:01;6.34;94.33
13796;SHT30;40911;51.552;9.874;2024-03-02T02:34:22;6.30;94.42
13796;SHT30;40911;51.552;9.874;2024-03-02T02:36:44;6.35;94.59
13796;SHT30;40911;51.552;9.874;2024-03-02T02:39:07;6.31;94.45
13796;SHT30;40911;51.552;9.874;2024-03-02T02:41:31;6.31;94.46
13796;SHT30;40911;51.552;9.874;2024-03-02T02:43:52;6.32;94.36
13796;SHT30;40911;51.552;9.874;2024-03-02T02:46:14;6.25;94.69
13796;SHT30;40911;51.552;9.874;2024-03-02T02:48:35;6.28;94.70
13796;SHT30;40911;51.552;9.874;2024-03-02T02:50:57;6.30;94.74
13796;SHT30;40911;51.552;9.874;2024-03-02T02:53:19;6.23;94.53
13796;SHT30;40911;51.552;9.874;2024-03-02T02:55:42;6.23;94.46
13796;SHT30;40911;51.552;9.874;2024-03-02T02:58:03;6.21;94.69
13796;SHT30;40911;51.552;9.874;2024-03-02T03:00:25;6.24;94.03
13796;SHT30;40911;51.552;9.874;2024-03-02T03:02:48;6.17;94.57
13796;SHT30;40911;51.552;9.874;2024-03-02T03:05:11;6.17;94.15
13796;SHT30;40911;51.552;9.874;2024-03-02T03:07:32;6.13;94.37
13796;SHT30;40911;51.552;9.874;2024-03-02T03:09:54;6.06;94.78
13796;SHT30;40911;51.552;9.874;2024-03-02T03:12:17;6.13;94.67
13796;SHT30;40911;51.552;9.874;2024-03-02T03:14:40;6.14;94.33
13796;SHT30;40911;51.552;9.874;2024-03-02T03:17:02;6.02;94.75
13796;SHT30;40911;51.552;9.874;2024-03-02T03:19:24;6.10;94.36
13796;SHT30;40911;51.552;9.874;2024-03-02T03:21:45;5.94;94.65
13796;SHT30;40911;51.552;9.874;2024-03-02T03:24:07;5.93;94.59
13796;SHT30;40911;51.552;9.874;2024-03-02T03:26:28;5.82;95.02
13796;SHT30;40911;51.552;9.874;2024-03-02T03:28:51;5.81;94.81
13796;SHT30;40911;51.552;9.874;2024-03-02T03:31:13;5.75;94.91
13796;SHT30;40911;51.552;9.874;2024-03-02T03:33:35;5.76;94.96
13796;SHT30;40911;51.552;9.874;2024-03-02T03:35:56;5.73;94.95
13796;SHT30;40911;51.552;9.874;2024-03-02T03:38:18;5.66;95.18
13796;SHT30;40911;51.552;9.874;2024-03-02T03:40:39;5.69;94.86
13796;SHT30;40911;51.552;9.874;2024-03-02T03:43:01;5.73;94.76
13796;SHT30;40911;51.552;9.874;2024-03-02T03:45:24;5.65;94.71
13796;SHT30;40911;51.552;9.874;2024-03-02T03:47:47;5.62;94.67
13796;SHT30;40911;51.552;9.874;2024-03-02T03:50:08;5.65;94.81
13796;SHT30;40911;51.552;9.874;2024-03-02T03:52:30;5.55;95.14
13796;SHT30;40911;51.552;9.874;2024-03-02T03:54:52;5.55;95.20
13796;SHT30;40911;51.552;9.874;2024-03-02T03:57:13;5.65;95.00
13796;SHT30;40911;51.552;9.874;2024-03-02T03:59:35;5.58;94.96
13796;SHT30;40911;51.552;9.874;2024-03-02T04:01:58;5.61;94.89
13796;SHT30;40911;51.552;9.874;2024-03-02T04:04:20;5.62;94.87
13796;SHT30;40911;51.552;9.874;2024-03-02T04:06:41;5.66;95.03
13796;SHT30;40911;51.552;9.874;2024-03-02T04:09:03;5.73;95.07
13796;SHT30;40911;51.552;9.874;2024-03-02T04:11:25;5.72;94.68
13796;SHT30;40911;51.552;9.874;2024-03-02T04:13:46;5.64;95.08
13796;SHT30;40911;51.552;9.874;2024-03-02T04:16:08;5.56;95.13
13796;SHT30;40911;51.552;9.874;2024-03-02T04:18:31;5.64;95.20
13796;SHT30;40911;51.552;9.874;2024-03-02T04:20:52;5.76;95.50
13796;SHT30;40911;51.552;9.874;2024-03-02T04:23:14;5.75;95.24
13796;SHT30;40911;51.552;9.874;2024-03-02T04:25:35;5.78;95.12
13796;SHT30;40911;51.552;9.874;2024-03-02T04:27:57;5.62;94.97
13796;SHT30;40911;51.552;9.874;2024-03-02T04:30:18;5.68;95.45
13796;SHT30;40911;51.552;9.874;2024-03-02T04:32:40;5.59;95.00
13796;SHT30;40911;51.552;9.874;2024-03-02T04:35:08;5.48;95.26
13796;SHT30;40911;51.552;9.874;2024-03-02T04:37:31;5.46;95.60
13796;SHT30;40911;51.552;9.874;2024-03-02T04:39:53;5.46;95.60
13796;SHT30;40911;51.552;9.874;2024-03-02T04:42:14;5.46;95.93
13796;SHT30;40911;51.552;9.874;2024-03-02T04:44:36;5.48;96.00
13796;SHT30;40911;51.552;9.874;2024-03-02T04:46:58;5.52;95.95
13796;SHT30;40911;51.552;9.874;2024-03-02T04:49:20;5.45;95.95
13796;SHT30;40911;51.552;9.874;2024-03-02T04:51:43;5.52;96.02
13796;SHT30;40911;51.552;9.874;2024-03-02T04:54:04;5.39;95.24
13796;SHT30;40911;51.552;9.874;2024-03-02T04:56:26;5.39;95.73
13796;SHT30;40911;51.552;9.874;2024-03-02T04:59:07;5.39;96.07
13796;SHT30;40911;51.552;9.874;2024-03-02T05:01:29;5.25;96.04
13796;SHT30;40911;51.552;9.874;2024-03-02T05:03:50;5.24;96.28
13796;SHT30;40911;51.552;9.874;2024-03-02T05:06:12;5.23;96.36
13796;SHT30;40911;51.552;9.874;2024-03-02T05:08:35;5.18;96.39
13796;SHT30;40911;51.552;9.874;2024-03-02T05:10:56;5.11;96.56
13796;SHT30;40911;51.552;9.874;2024-03-02T05:13:38;5.07;96.38
13796;SHT30;40911;51.552;9.874;2024-03-02T05:15:59;4.89;96.62
13796;SHT30;40911;51.552;9.874;2024-03-02T05:18:21;4.93;96.97
13796;SHT30;40911;51.552;9.874;2024-03-02T05:20:44;4.86;96.94
13796;SHT30;40911;51.552;9.874;2024-03-02T05:23:05;4.92;97.26
13796;SHT30;40911;51.552;9.874;2024-03-02T05:25:28;5.08;97.36
13796;SHT30;40911;51.552;9.874;2024-03-02T05:27:50;5.13;97.36
13796;SHT30;40911;51.552;9.874;2024-03-02T05:30:12;5.16;97.31
13796;SHT30;40911;51.552;9.874;2024-03-02T05:32:34;5.14;97.26
13796;SHT30;40911;51.552;9.874;2024-03-02T05:34:55;5.04;97.07
13796;SHT30;40911;51.552;9.874;2024-03-02T05:37:17;5.17;97.05
13796;SHT30;40911;51.552;9.874;2024-03-02T05:39:38;5.20;97.07
13796;SHT30;40911;51.552;9.874;2024-03-02T05:42:01;5.24;97.16
13796;SHT30;40911;51.552;9.874;2024-03-02T05:44:23;5.31;97.18
13796;SHT30;40911;51.552;9.874;2024-03-02T05:46:45;5.28;97.18
13796;SHT30;40911;51.552;9.874;2024-03-02T05:49:06;5.31;97.20
13796;SHT30;40911;51.552;9.874;2024-03-02T05:51:28;5.35;97.24
13796;SHT30;40911;51.552;9.874;2024-03-02T05:53:49;5.34;97.08
13796;SHT30;40911;51.552;9.874;2024-03-02T05:56:11;5.32;97.18
13796;SHT30;40911;51.552;9.874;2024-03-02T05:58:34;5.34;97.03
13796;SHT30;40911;51.552;9.874;2024-03-02T06:01:10;5.31;96.89
13796;SHT30;40911;51.552;9.874;2024-03-02T06:03:31;5.39;96.98
13796;SHT30;40911;51.552;9.874;2024-03-02T06:05:53;5.41;97.00
13796;SHT30;40911;51.552;9.874;2024-03-02T06:08:14;5.38;96.95
13796;SHT30;40911;51.552;9.874;2024-03-02T06:10:36;5.37;97.02
13796;SHT30;40911;51.552;9.874;2024-03-02T06:12:57;5.39;96.88
13796;SHT30;40911;51.552;9.874;2024-03-02T06:15:21;5.41;96.98
13796;SHT30;40911;51.552;9.874;2024-03-02T06:17:43;5.45;96.94
13796;SHT30;40911;51.552;9.874;2024-03-02T06:20:05;5.46;96.84
13796;SHT30;40911;51.552;9.874;2024-03-02T06:22:28;5.54;96.86
13796;SHT30;40911;51.552;9.874;2024-03-02T06:24:49;5.56;96.72
13796;SHT30;40911;51.552;9.874;2024-03-02T06:27:11;5.56;96.77
13796;SHT30;40911;51.552;9.874;2024-03-02T06:29:33;5.65;96.77
13796;SHT30;40911;51.552;9.874;2024-03-02T06:31:56;5.61;96.74
13796;SHT30;40911;51.552;9.874;2024-03-02T06:34:17;5.58;96.72
13796;SHT30;40911;51.552;9.874;2024-03-02T06:36:39;5.66;96.70
13796;SHT30;40911;51.552;9.874;2024-03-02T06:39:02;5.72;96.59
13796;SHT30;40911;51.552;9.874;2024-03-02T06:41:24;5.71;96.58
13796;SHT30;40911;51.552;9.874;2024-03-02T06:43:46;5.75;96.53
13796;SHT30;40911;51.552;9.874;2024-03-02T06:46:08;5.76;96.52
13796;SHT30;40911;51.552;9.874;2024-03-02T06:48:31;5.79;96.44
13796;SHT30;40911;51.552;9.874;2024-03-02T06:50:53;5.83;96.38
13796;SHT30;40911;51.552;9.874;2024-03-02T06:53:16;5.86;96.32
13796;SHT30;40911;51.552;9.874;2024-03-02T06:55:38;5.86;96.18
13796;SHT30;40911;51.552;9.874;2024-03-02T06:58:00;5.96;96.14
13796;SHT30;40911;51.552;9.874;2024-03-02T07:00:21;5.96;96.09
13796;SHT30;40911;51.552;9.874;2024-03-02T07:02:43;6.00;95.94
13796;SHT30;40911;51.552;9.874;2024-03-02T07:05:06;6.03;96.08
13796;SHT30;40911;51.552;9.874;2024-03-02T07:07:28;6.10;96.04
13796;SHT30;40911;51.552;9.874;2024-03-02T07:09:50;6.09;95.92
13796;SHT30;40911;51.552;9.874;2024-03-02T07:12:12;6.11;95.88
13796;SHT30;40911;51.552;9.874;2024-03-02T07:14:34;6.09;95.86
13796;SHT30;40911;51.552;9.874;2024-03-02T07:17:13;6.13;95.83
13796;SHT30;40911;51.552;9.874;2024-03-02T07:19:35;6.11;95.68
13796;SHT30;40911;51.552;9.874;2024-03-02T07:21:58;6.17;95.54
13796;SHT30;40911;51.552;9.874;2024-03-02T07:24:19;6.20;95.58
13796;SHT30;40911;51.552;9.874;2024-03-02T07:26:41;6.23;95.60
13796;SHT30;40911;51.552;9.874;2024-03-02T07:29:02;6.25;95.51
13796;SHT30;40911;51.552;9.874;2024-03-02T07:31:24;6.25;95.55
13796;SHT30;40911;51.552;9.874;2024-03-02T07:33:46;6.28;95.45
13796;SHT30;40911;51.552;9.874;2024-03-02T07:36:08;6.31;95.52
13796;SHT30;40911;51.552;9.874;2024-03-02T07:38:31;6.34;95.40
13796;SHT30;40911;51.552;9.874;2024-03-02T07:40:53;6.38;95.38
13796;SHT30;40911;51.552;9.874;2024-03-02T07:43:15;6.41;95.38
13796;SHT30;40911;51.552;9.874;2024-03-02T07:45:37;6.49;95.34
13796;SHT30;40911;51.552;9.874;2024-03-02T07:47:59;6.59;95.35
13796;SHT30;40911;51.552;9.874;2024-03-02T07:50:20;6.68;95.33
13796;SHT30;40911;51.552;9.874;2024-03-02T07:52:42;6.78;95.24
13796;SHT30;40911;51.552;9.874;2024-03-02T07:55:05;6.86;95.15
13796;SHT30;40911;51.552;9.874;2024-03-02T07:57:27;6.99;94.91
13796;SHT30;40911;51.552;9.874;2024-03-02T07:59:49;7.04;94.50
13796;SHT30;40911;51.552;9.874;2024-03-02T08:02:10;7.18;94.49
13796;SHT30;40911;51.552;9.874;2024-03-02T08:04:33;7.28;94.31
13796;SHT30;40911;51.552;9.874;2024-03-02T08:06:54;7.38;94.00
13796;SHT30;40911;51.552;9.874;2024-03-02T08:09:16;7.51;93.45
13796;SHT30;40911;51.552;9.874;2024-03-02T08:11:39;7.66;93.33
13796;SHT30;40911;51.552;9.874;2024-03-02T08:14:00;7.76;92.95
13796;SHT30;40911;51.552;9.874;2024-03-02T08:16:22;7.95;92.38
13796;SHT30;40911;51.552;9.874;2024-03-02T08:18:45;8.12;92.01
13796;SHT30;40911;51.552;9.874;2024-03-02T08:21:07;8.33;91.71
13796;SHT30;40911;51.552;9.874;2024-03-02T08:23:29;8.30;91.56
13796;SHT30;40911;51.552;9.874;2024-03-02T08:25:52;8.33;91.32
13796;SHT30;40911;51.552;9.874;2024-03-02T08:28:15;8.42;91.47
13796;SHT30;40911;51.552;9.874;2024-03-02T08:30:37;8.42;91.13
13796;SHT30;40911;51.552;9.874;2024-03-02T08:32:59;8.42;90.92
13796;SHT30;40911;51.552;9.874;2024-03-02T08:35:21;8.51;90.39
13796;SHT30;40911;51.552;9.874;2024-03-02T08:37:43;8.51;90.43
13796;SHT30;40911;51.552;9.874;2024-03-02T08:40:05;8.75;89.88
13796;SHT30;40911;51.552;9.874;2024-03-02T08:42:27;8.79;89.82
13796;SHT30;40911;51.552;9.874;2024-03-02T08:44:50;8.89;89.62
13796;SHT30;40911;51.552;9.874;2024-03-02T08:47:12;8.86;89.78
13796;SHT30;40911;51.552;9.874;2024-03-02T08:49:33;8.77;89.26
13796;SHT30;40911;51.552;9.874;2024-03-02T08:51:55;8.95;89.45
13796;SHT30;40911;51.552;9.874;2024-03-02T08:54:16;9.09;88.98
13796;SHT30;40911;51.552;9.874;2024-03-02T08:56:38;8.93;88.35
13796;SHT30;40911;51.552;9.874;2024-03-02T08:59:00;9.07;88.78
13796;SHT30;40911;51.552;9.874;2024-03-02T09:01:23;9.04;88.58
13796;SHT30;40911;51.552;9.874;2024-03-02T09:03:44;9.03;88.16
13796;SHT30;40911;51.552;9.874;2024-03-02T09:06:06;8.99;88.15
13796;SHT30;40911;51.552;9.874;2024-03-02T09:08:28;9.17;87.78
13796;SHT30;40911;51.552;9.874;2024-03-02T09:10:49;9.06;88.06
13796;SHT30;40911;51.552;9.874;2024-03-02T09:13:11;9.11;88.21
13796;SHT30;40911;51.552;9.874;2024-03-02T09:15:32;9.04;87.66
13796;SHT30;40911;51.552;9.874;2024-03-02T09:17:59;9.09;87.61
13796;SHT30;40911;51.552;9.874;2024-03-02T09:20:20;9.19;88.00
13796;SHT30;40911;51.552;9.874;2024-03-02T09:22:43;9.10;87.60
13796;SHT30;40911;51.552;9.874;2024-03-02T09:25:08;9.10;87.33
13796;SHT30;40911;51.552;9.874;2024-03-02T09:27:29;8.93;87.51
13796;SHT30;40911;51.552;9.874;2024-03-02T09:29:51;9.03;87.52
13796;SHT30;40911;51.552;9.874;2024-03-02T09:32:13;9.11;87.13
13796;SHT30;40911;51.552;9.874;2024-03-02T09:34:37;9.14;87.24
13796;SHT30;40911;51.552;9.874;2024-03-02T09:36:58;9.14;86.67
13796;SHT30;40911;51.552;9.874;2024-03-02T09:39:20;9.26;86.84
13796;SHT30;40911;51.552;9.874;2024-03-02T09:41:42;9.28;86.68
13796;SHT30;40911;51.552;9.874;2024-03-02T09:44:04;9.27;86.70
13796;SHT30;40911;51.552;9.874;2024-03-02T09:46:26;9.38;86.50
13796;SHT30;40911;51.552;9.874;2024-03-02T09:48:47;9.45;85.89
13796;SHT30;40911;51.552;9.874;2024-03-02T09:51:11;9.54;85.76
13796;SHT30;40911;51.552;9.874;2024-03-02T09:53:33;9.70;85.50
13796;SHT30;40911;51.552;9.874;2024-03-02T09:55:55;9.85;85.37
13796;SHT30;40911;51.552;9.874;2024-03-02T09:58:17;9.75;84.80
13796;SHT30;40911;51.552;9.874;2024-03-02T10:00:38;9.95;84.38
13796;SHT30;40911;51.552;9.874;2024-03-02T10:03:00;10.14;83.99
13796;SHT30;40911;51.552;9.874;2024-03-02T10:05:25;10.17;84.00
13796;SHT30;40911;51.552;9.874;2024-03-02T10:07:58;10.13;83.12
13796;SHT30;40911;51.552;9.874;2024-03-02T10:10:21;10.40;83.64
13796;SHT30;40911;51.552;9.874;2024-03-02T10:12:42;10.16;82.92
13796;SHT30;40911;51.552;9.874;2024-03-02T10:15:05;10.28;82.88
13796;SHT30;40911;51.552;9.874;2024-03-02T10:17:31;10.36;82.14
13796;SHT30;40911;51.552;9.874;2024-03-02T10:19:52;10.62;81.98
13796;SHT30;40911;51.552;9.874;2024-03-02T10:22:14;10.72;81.74
13796;SHT30;40911;51.552;9.874;2024-03-02T10:24:38;10.86;81.15
13796;SHT30;40911;51.552;9.874;2024-03-02T10:27:00;10.81;81.39
13796;SHT30;40911;51.552;9.874;2024-03-02T10:29:22;11.04;81.25
13796;SHT30;40911;51.552;9.874;2024-03-02T10:31:44;10.88;80.68
13796;SHT30;40911;51.552;9.874;2024-03-02T10:34:07;10.85;80.45
13796;SHT30;40911;51.552;9.874;2024-03-02T10:36:29;11.07;79.83
13796;SHT30;40911;51.552;9.874;2024-03-02T10:38:50;11.47;80.30
13796;SHT30;40911;51.552;9.874;2024-03-02T10:41:18;11.41;79.29
13796;SHT30;40911;51.552;9.874;2024-03-02T10:43:40;11.26;79.22
13796;SHT30;40911;51.552;9.874;2024-03-02T10:46:01;11.47;79.92
13796;SHT30;40911;51.552;9.874;2024-03-02T10:48:24;11.58;79.01
13796;SHT30;40911;51.552;9.874;2024-03-02T10:50:47;11.39;78.98
13796;SHT30;40911;51.552;9.874;2024-03-02T10:53:09;11.64;79.47
13796;SHT30;40911;51.552;9.874;2024-03-02T10:55:30;11.71;78.66
13796;SHT30;40911;51.552;9.874;2024-03-02T10:57:54;11.51;78.59
13796;SHT30;40911;51.552;9.874;2024-03-02T11:00:18;11.67;78.98
13796;SHT30;40911;51.552;9.874;2024-03-02T11:02:50;11.77;78.52
13796;SHT30;40911;51.552;9.874;2024-03-02T11:05:13;11.46;77.99
13796;SHT30;40911;51.552;9.874;2024-03-02T11:07:38;11.57;78.50
13796;SHT30;40911;51.552;9.874;2024-03-02T11:10:01;11.62;78.52
13796;SHT30;40911;51.552;9.874;2024-03-02T11:12:29;11.39;78.41
13796;SHT30;40911;51.552;9.874;2024-03-02T11:14:55;11.58;78.35
13796;SHT30;40911;51.552;9.874;2024-03-02T11:17:17;11.41;78.29
13796;SHT30;40911;51.552;9.874;2024-03-02T11:19:40;11.52;78.17
13796;SHT30;40911;51.552;9.874;2024-03-02T11:22:02;11.58;77.57
13796;SHT30;40911;51.552;9.874;2024-03-02T11:24:28;11.55;77.32
13796;SHT30;40911;51.552;9.874;2024-03-02T11:26:53;11.67;77.83
13796;SHT30;40911;51.552;9.874;2024-03-02T11:29:44;11.72;76.78
13796;SHT30;40911;51.552;9.874;2024-03-02T11:32:14;11.95;76.67
13796;SHT30;40911;51.552;9.874;2024-03-02T11:34:36;11.89;76.08
13796;SHT30;40911;51.552;9.874;2024-03-02T11:37:01;12.19;76.46
13796;SHT30;40911;51.552;9.874;2024-03-02T11:39:23;12.23;75.39
13796;SHT30;40911;51.552;9.874;2024-03-02T11:41:45;12.20;75.90
13796;SHT30;40911;51.552;9.874;2024-03-02T11:44:06;12.20;76.08
13796;SHT30;40911;51.552;9.874;2024-03-02T11:46:32;12.13;75.51
13796;SHT30;40911;51.552;9.874;2024-03-02T11:48:55;12.12;75.37
13796;SHT30;40911;51.552;9.874;2024-03-02T11:51:16;12.12;75.38
13796;SHT30;40911;51.552;9.874;2024-03-02T11:53:39;12.00;75.96
13796;SHT30;40911;51.552;9.874;2024-03-02T11:56:01;12.13;75.43
13796;SHT30;40911;51.552;9.874;2024-03-02T11:58:23;12.17;75.36
13796;SHT30;40911;51.552;9.874;2024-03-02T12:00:47;12.37;74.83
13796;SHT30;40911;51.552;9.874;2024-03-02T12:03:09;12.25;74.67
13796;SHT30;40911;51.552;9.874;2024-03-02T12:05:32;12.72;74.04
13796;SHT30;40911;51.552;9.874;2024-03-02T12:07:56;13.03;73.47
13796;SHT30;40911;51.552;9.874;2024-03-02T12:10:18;12.78;73.08
13796;SHT30;40911;51.552;9.874;2024-03-02T12:12:40;13.02;72.78
13796;SHT30;40911;51.552;9.874;2024-03-02T12:15:02;13.27;72.27
13796;SHT30;40911;51.552;9.874;2024-03-02T12:17:23;13.48;72.10
13796;SHT30;40911;51.552;9.874;2024-03-02T12:19:45;13.08;71.42
13796;SHT30;40911;51.552;9.874;2024-03-02T12:22:08;13.20;70.77
13796;SHT30;40911;51.552;9.874;2024-03-02T12:24:30;13.24;71.57
13796;SHT30;40911;51.552;9.874;2024-03-02T12:26:52;13.50;71.78
13796;SHT30;40911;51.552;9.874;2024-03-02T12:29:14;13.48;70.76
13796;SHT30;40911;51.552;9.874;2024-03-02T12:31:35;13.57;70.10
13796;SHT30;40911;51.552;9.874;2024-03-02T12:33:57;13.57;70.07
13796;SHT30;40911;51.552;9.874;2024-03-02T12:36:18;13.78;70.46
13796;SHT30;40911;51.552;9.874;2024-03-02T12:38:44;13.53;69.74
13796;SHT30;40911;51.552;9.874;2024-03-02T12:41:07;13.74;69.58
13796;SHT30;40911;51.552;9.874;2024-03-02T12:43:30;13.98;68.86
13796;SHT30;40911;51.552;9.874;2024-03-02T12:45:53;13.77;68.33
13796;SHT30;40911;51.552;9.874;2024-03-02T12:48:16;13.65;69.51
13796;SHT30;40911;51.552;9.874;2024-03-02T12:50:38;13.53;68.74
13796;SHT30;40911;51.552;9.874;2024-03-02T12:52:59;13.53;68.53
13796;SHT30;40911;51.552;9.874;2024-03-02T12:55:23;13.53;68.76
13796;SHT30;40911;51.552;9.874;2024-03-02T12:57:45;13.40;68.93
13796;SHT30;40911;51.552;9.874;2024-03-02T13:00:07;13.48;67.56
13796;SHT30;40911;51.552;9.874;2024-03-02T13:02:31;13.70;68.02
13796;SHT30;40911;51.552;9.874;2024-03-02T13:04:53;14.08;67.50
13796;SHT30;40911;51.552;9.874;2024-03-02T13:07:15;13.71;67.64
13796;SHT30;40911;51.552;9.874;2024-03-02T13:09:37;13.82;66.96
13796;SHT30;40911;51.552;9.874;2024-03-02T13:12:00;14.12;66.88
13796;SHT30;40911;51.552;9.874;2024-03-02T13:14:24;13.92;66.54
13796;SHT30;40911;51.552;9.874;2024-03-02T13:16:46;14.08;66.71
13796;SHT30;40911;51.552;9.874;2024-03-02T13:19:08;14.15;66.61
13796;SHT30;40911;51.552;9.874;2024-03-02T13:21:30;13.74;65.31
13796;SHT30;40911;51.552;9.874;2024-03-02T13:23:51;14.09;66.49
13796;SHT30;40911;51.552;9.874;2024-03-02T13:26:13;13.81;65.41
13796;SHT30;40911;51.552;9.874;2024-03-02T13:28:36;14.02;66.08
13796;SHT30;40911;51.552;9.874;2024-03-02T13:30:58;14.12;65.77
13796;SHT30;40911;51.552;9.874;2024-03-02T13:33:20;14.02;65.73
13796;SHT30;40911;51.552;9.874;2024-03-02T13:35:42;14.08;65.33
13796;SHT30;40911;51.552;9.874;2024-03-02T13:38:04;13.84;64.46
13796;SHT30;40911;51.552;9.874;2024-03-02T13:40:25;13.88;64.88
13796;SHT30;40911;51.552;9.874;2024-03-02T13:42:48;13.89;65.44
13796;SHT30;40911;51.552;9.874;2024-03-02T13:45:12;13.74;65.95
13796;SHT30;40911;51.552;9.874;2024-03-02T13:47:34;13.68;65.26
13796;SHT30;40911;51.552;9.874;2024-03-02T13:49:55;13.77;65.93
13796;SHT30;40911;51.552;9.874;2024-03-02T13:52:17;13.60;65.98
13796;SHT30;40911;51.552;9.874;2024-03-02T13:54:39;13.48;65.25
13796;SHT30;40911;51.552;9.874;2024-03-02T13:57:00;13.54;64.72
13796;SHT30;40911;51.552;9.874;2024-03-02T13:59:23;13.61;64.03
13796;SHT30;40911;51.552;9.874;2024-03-02T14:01:46;13.48;65.52
13796;SHT30;40911;51.552;9.874;2024-03-02T14:04:08;13.44;65.01
13796;SHT30;40911;51.552;9.874;2024-03-02T14:06:29;13.50;64.62
13796;SHT30;40911;51.552;9.874;2024-03-02T14:08:51;13.37;65.49
13796;SHT30;40911;51.552;9.874;2024-03-02T14:11:13;13.57;65.15
13796;SHT30;40911;51.552;9.874;2024-03-02T14:13:36;13.53;66.10
13796;SHT30;40911;51.552;9.874;2024-03-02T14:15:58;13.51;66.17
13796;SHT30;40911;51.552;9.874;2024-03-02T14:18:21;13.54;65.33
13796;SHT30;40911;51.552;9.874;2024-03-02T14:20:42;13.54;65.09
13796;SHT30;40911;51.552;9.874;2024-03-02T14:23:04;13.61;66.06
13796;SHT30;40911;51.552;9.874;2024-03-02T14:25:26;13.58;65.71
13796;SHT30;40911;51.552;9.874;2024-03-02T14:27:51;13.82;64.73
13796;SHT30;40911;51.552;9.874;2024-03-02T14:30:12;13.71;64.91
13796;SHT30;40911;51.552;9.874;2024-03-02T14:32:34;13.91;64.65
13796;SHT30;40911;51.552;9.874;2024-03-02T14:34:57;13.74;64.84
13796;SHT30;40911;51.552;9.874;2024-03-02T14:37:18;13.78;64.36
13796;SHT30;40911;51.552;9.874;2024-03-02T14:39:40;13.92;64.63
13796;SHT30;40911;51.552;9.874;2024-03-02T14:42:02;13.81;64.27
13796;SHT30;40911;51.552;9.874;2024-03-02T14:44:24;13.82;65.07
13796;SHT30;40911;51.552;9.874;2024-03-02T14:46:46;13.99;64.12
13796;SHT30;40911;51.552;9.874;2024-03-02T14:49:07;13.84;65.29
13796;SHT30;40911;51.552;9.874;2024-03-02T14:51:32;14.04;65.20
13796;SHT30;40911;51.552;9.874;2024-03-02T14:53:53;14.10;63.98
13796;SHT30;40911;51.552;9.874;2024-03-02T14:56:15;14.20;63.62
13796;SHT30;40911;51.552;9.874;2024-03-02T14:58:36;14.20;64.20
13796;SHT30;40911;51.552;9.874;2024-03-02T15:00:58;14.22;64.53
13796;SHT30;40911;51.552;9.874;2024-03-02T15:03:20;14.20;64.44
13796;SHT30;40911;51.552;9.874;2024-03-02T15:05:41;14.27;64.50
13796;SHT30;40911;51.552;9.874;2024-03-02T15:08:05;14.34;64.25
13796;SHT30;40911;51.552;9.874;2024-03-02T15:10:27;14.44;63.78